createdAt,value
2023-01-15T00:03:12.483Z,7.22
2023-01-15T00:08:13.653Z,7.16
2023-01-15T00:13:14.859Z,7.08
2023-01-15T00:18:16.034Z,6.93
2023-01-15T00:23:37.183Z,6.80
2023-01-15T00:28:38.386Z,6.69
2023-01-15T00:33:39.582Z,6.58
2023-01-15T00:38:40.769Z,6.46
2023-01-15T00:43:41.943Z,6.35
2023-01-15T00:48:43.131Z,6.23
2023-01-15T00:53:44.308Z,6.15
2023-01-15T00:58:47.612Z,6.11
2023-01-15T01:03:50.163Z,6.05
2023-01-15T01:08:51.331Z,6.06
2023-01-15T01:13:52.628Z,6.07
2023-01-15T01:18:53.835Z,6.07
2023-01-15T01:23:55.099Z,6.03
2023-01-15T01:28:56.368Z,5.94
2023-01-15T01:33:57.516Z,5.89
2023-01-15T01:38:59.798Z,5.83
2023-01-15T01:44:01.116Z,5.78
2023-01-15T01:49:02.321Z,5.72
2023-01-15T01:54:03.471Z,5.71
2023-01-15T01:59:04.612Z,5.68
2023-01-15T02:04:05.814Z,5.69
2023-01-15T02:09:07.007Z,5.71
2023-01-15T02:14:08.233Z,5.74
2023-01-15T02:19:09.442Z,5.73
2023-01-15T02:24:10.634Z,5.67
2023-01-15T02:29:11.768Z,5.62
2023-01-15T02:34:12.945Z,5.60
2023-01-15T02:39:14.132Z,5.62
2023-01-15T02:44:15.285Z,5.59
2023-01-15T02:49:16.528Z,5.56
2023-01-15T02:54:17.710Z,5.54
2023-01-15T02:59:18.923Z,5.54
2023-01-15T03:04:20.128Z,5.54
2023-01-15T03:09:21.433Z,5.59
2023-01-15T03:14:22.685Z,5.63
2023-01-15T03:19:23.914Z,5.66
2023-01-15T03:24:25.681Z,5.65
2023-01-15T03:29:26.924Z,5.64
2023-01-15T03:34:28.081Z,5.62
2023-01-15T03:39:29.285Z,5.54
2023-01-15T03:44:32.862Z,5.47
2023-01-15T03:49:34.055Z,5.42
2023-01-15T03:54:35.221Z,5.39
2023-01-15T03:59:36.541Z,5.39
2023-01-15T04:04:37.735Z,5.41
2023-01-15T04:09:39.231Z,5.40
2023-01-15T04:14:40.441Z,5.48
2023-01-15T04:19:43.573Z,5.54
2023-01-15T04:24:44.748Z,5.55
2023-01-15T04:29:45.915Z,5.64
2023-01-15T04:34:47.097Z,5.64
2023-01-15T04:39:48.294Z,5.64
2023-01-15T04:44:49.539Z,5.61
2023-01-15T04:49:50.725Z,5.58
2023-01-15T04:54:51.999Z,5.56
2023-01-15T04:59:53.176Z,5.56
2023-01-15T05:04:54.356Z,5.62
2023-01-15T05:09:55.605Z,5.64
2023-01-15T05:14:56.822Z,5.58
2023-01-15T05:19:58.019Z,5.54
2023-01-15T05:24:59.203Z,5.48
2023-01-15T05:30:00.435Z,5.47
2023-01-15T05:35:01.676Z,5.47
2023-01-15T05:40:02.924Z,5.52
2023-01-15T05:45:04.071Z,5.60
2023-01-15T05:50:05.262Z,5.60
2023-01-15T05:55:06.433Z,5.68
2023-01-15T06:00:07.616Z,5.73
2023-01-15T06:05:08.798Z,5.72
2023-01-15T06:10:10.015Z,5.72
2023-01-15T06:15:11.232Z,5.80
2023-01-15T06:20:12.382Z,5.78
2023-01-15T06:25:14.378Z,5.81
2023-01-15T06:30:15.565Z,5.86
2023-01-15T06:35:16.818Z,5.85
2023-01-15T06:40:18.033Z,5.82
2023-01-15T06:45:37.813Z,5.76
2023-01-15T06:50:38.999Z,5.75
2023-01-15T06:55:40.133Z,5.70
2023-01-15T07:00:45.175Z,5.65
2023-01-15T07:05:46.391Z,5.63
2023-01-15T07:10:47.611Z,5.67
2023-01-15T07:15:48.822Z,5.61
2023-01-15T07:20:50.020Z,5.60
2023-01-15T07:25:51.227Z,5.60
2023-01-15T07:30:52.455Z,5.60
2023-01-15T07:35:53.674Z,5.48
2023-01-15T07:41:14.794Z,5.41
2023-01-15T07:46:34.671Z,5.38
2023-01-15T07:51:36.944Z,5.38
2023-01-15T07:56:38.131Z,5.31
2023-01-15T08:01:39.529Z,5.32
2023-01-15T08:06:40.756Z,5.35
2023-01-15T08:12:00.780Z,5.39
2023-01-15T08:17:02.025Z,5.40
2023-01-15T08:22:03.420Z,5.47
2023-01-15T08:27:04.605Z,5.48
2023-01-15T08:32:05.844Z,5.45
2023-01-15T08:37:07.053Z,5.40
2023-01-15T08:42:08.511Z,5.36
2023-01-15T08:47:09.958Z,5.28
2023-01-15T08:52:11.163Z,5.26
2023-01-15T08:57:13.671Z,5.21
2023-01-15T09:02:14.828Z,5.14
2023-01-15T09:07:16.642Z,5.05
2023-01-15T09:12:17.872Z,4.98
2023-01-15T09:17:19.066Z,4.90
2023-01-15T09:22:20.245Z,4.87
2023-01-15T09:27:21.486Z,4.82
2023-01-15T09:32:22.617Z,4.77
2023-01-15T09:37:23.814Z,4.74
2023-01-15T09:42:25.014Z,4.75
2023-01-15T09:47:26.225Z,4.88
2023-01-15T09:52:27.386Z,5.72
2023-01-15T09:57:28.676Z,6.29
2023-01-15T10:02:29.829Z,6.22
2023-01-15T10:07:31.017Z,6.26
2023-01-15T10:12:35.308Z,6.61
2023-01-15T10:17:36.522Z,7.06
2023-01-15T10:22:37.693Z,7.54
2023-01-15T10:27:40.152Z,8.50
2023-01-15T10:32:46.036Z,8.67
2023-01-15T10:37:51.838Z,8.83
2023-01-15T10:42:53.011Z,7.95
2023-01-15T10:47:54.215Z,7.87
2023-01-15T10:52:55.443Z,7.91
2023-01-15T10:58:09.366Z,7.44
2023-01-15T11:03:14.869Z,7.29
2023-01-15T11:08:58.215Z,7.23
2023-01-15T11:13:56.257Z,7.71
2023-01-15T11:19:15.908Z,7.38
2023-01-15T11:24:17.097Z,8.00
2023-01-15T11:29:18.347Z,7.62
2023-01-15T11:34:21.936Z,7.26
2023-01-15T11:39:23.336Z,7.13
2023-01-15T11:44:43.226Z,7.13
2023-01-15T11:50:02.867Z,7.24
2023-01-15T11:55:04.156Z,7.18
2023-01-15T12:00:05.392Z,7.11
2023-01-15T12:05:06.625Z,7.10
2023-01-15T12:10:10.286Z,7.09
2023-01-15T12:15:11.514Z,7.19
2023-01-15T12:20:12.739Z,7.30
2023-01-15T12:25:13.959Z,7.43
2023-01-15T12:30:15.156Z,7.58
2023-01-15T12:35:16.319Z,7.52
2023-01-15T12:40:17.512Z,7.46
2023-01-15T12:45:18.691Z,7.37
2023-01-15T12:50:19.885Z,7.46
2023-01-15T12:55:21.180Z,7.74
2023-01-15T13:00:23.240Z,7.70
2023-01-15T13:05:24.373Z,7.54
2023-01-15T13:10:25.539Z,7.56
2023-01-15T13:15:26.822Z,7.39
2023-01-15T13:20:28.014Z,7.44
2023-01-15T13:25:29.830Z,7.83
2023-01-15T13:30:31.128Z,7.96
2023-01-15T13:35:32.363Z,7.78
2023-01-15T13:40:34.714Z,7.92
2023-01-15T13:45:36.927Z,7.90
2023-01-15T13:50:38.176Z,7.74
2023-01-15T13:55:39.382Z,7.57
2023-01-15T14:00:40.742Z,7.46
2023-01-15T14:05:42.101Z,7.34
2023-01-15T14:10:43.360Z,7.27
2023-01-15T14:15:44.491Z,7.22
2023-01-15T14:20:45.652Z,7.16
2023-01-15T14:25:47.089Z,7.19
2023-01-15T14:30:48.236Z,7.16
2023-01-15T14:35:49.416Z,7.16
2023-01-15T14:40:50.590Z,7.14
2023-01-15T14:45:52.948Z,7.14
2023-01-15T14:50:54.266Z,7.10
2023-01-15T14:55:55.433Z,7.04
2023-01-15T15:00:56.611Z,7.01
2023-01-15T15:05:57.913Z,7.00
2023-01-15T15:10:59.142Z,6.99
2023-01-15T15:16:00.374Z,6.97
2023-01-15T15:21:01.587Z,6.76
2023-01-15T15:26:02.860Z,6.94
2023-01-15T15:31:04.052Z,6.90
2023-01-15T15:36:05.249Z,6.85
2023-01-15T15:41:06.467Z,6.84
2023-01-15T15:46:27.967Z,6.83
2023-01-15T15:51:30.023Z,6.79
2023-01-15T15:56:31.235Z,6.74
2023-01-15T16:01:32.573Z,6.74
2023-01-15T16:06:34.781Z,6.68
2023-01-15T16:11:35.968Z,6.62
2023-01-15T16:16:37.147Z,6.58
2023-01-15T16:21:39.170Z,6.54
2023-01-15T16:26:40.326Z,6.58
2023-01-15T16:31:41.727Z,6.62
2023-01-15T16:36:45.404Z,6.63
2023-01-15T16:41:46.666Z,6.62
2023-01-15T16:46:47.833Z,6.58
2023-01-15T16:51:49.348Z,6.61
2023-01-15T16:56:50.753Z,6.58
2023-01-15T17:01:56.446Z,6.57
2023-01-15T17:06:57.811Z,6.60
2023-01-15T17:11:59.147Z,6.64
2023-01-15T17:17:00.393Z,6.66
2023-01-15T17:22:01.659Z,6.64
2023-01-15T17:27:02.916Z,6.64
2023-01-15T17:32:04.696Z,6.63
2023-01-15T17:37:06.013Z,6.63
2023-01-15T17:42:07.281Z,6.61
2023-01-15T17:47:08.912Z,6.59
2023-01-15T17:52:10.289Z,6.23
2023-01-15T17:57:30.371Z,5.83
2023-01-15T18:02:50.225Z,5.75
2023-01-15T18:07:51.453Z,5.70
2023-01-15T18:12:52.867Z,5.66
2023-01-15T18:17:54.110Z,5.65
2023-01-15T18:22:55.379Z,5.69
2023-01-15T18:27:56.639Z,5.77
2023-01-15T18:32:57.913Z,5.84
2023-01-15T18:37:59.178Z,5.94
2023-01-15T18:43:19.279Z,5.95
2023-01-15T18:48:20.536Z,5.96
2023-01-15T18:53:21.808Z,5.94
2023-01-15T18:58:23.092Z,5.96
2023-01-15T19:03:24.339Z,5.94
2023-01-15T19:08:25.522Z,5.94
2023-01-15T19:13:26.676Z,5.92
2023-01-15T19:18:45.453Z,5.86
2023-01-15T19:23:46.697Z,5.79
2023-01-15T19:28:47.929Z,5.71
2023-01-15T19:33:49.592Z,5.57
2023-01-15T19:38:50.734Z,5.50
2023-01-15T19:44:10.440Z,5.36
2023-01-15T19:49:40.818Z,5.27
2023-01-15T19:54:57.282Z,5.38
2023-01-15T19:59:58.532Z,5.45
2023-01-15T20:04:59.743Z,5.46
2023-01-15T20:10:00.971Z,5.44
2023-01-15T20:15:02.199Z,5.41
2023-01-15T20:20:03.385Z,5.40
2023-01-15T20:25:04.561Z,5.39
2023-01-15T20:30:09.128Z,5.39
2023-01-15T20:35:11.114Z,5.37
2023-01-15T20:40:12.411Z,5.36
2023-01-15T20:45:13.699Z,5.36
2023-01-15T20:50:15.835Z,5.38
2023-01-15T20:55:17.237Z,5.38
2023-01-15T21:00:18.437Z,5.44
2023-01-15T21:05:20.476Z,5.46
2023-01-15T21:10:22.992Z,5.47
2023-01-15T21:15:24.226Z,5.48
2023-01-15T21:20:25.467Z,5.51
2023-01-15T21:25:26.707Z,5.48
2023-01-15T21:30:27.865Z,5.48
2023-01-15T21:35:29.056Z,5.35
2023-01-15T21:40:30.262Z,5.22
2023-01-15T21:45:31.827Z,5.09
2023-01-15T21:50:33.056Z,5.03
2023-01-15T21:55:34.436Z,4.95
2023-01-15T22:00:35.721Z,4.89
2023-01-15T22:05:37.003Z,4.84
2023-01-15T22:10:38.242Z,4.82
2023-01-15T22:15:39.568Z,4.79
2023-01-15T22:20:40.803Z,4.79
2023-01-15T22:25:43.294Z,4.80
2023-01-15T22:30:44.527Z,4.83
2023-01-15T22:35:45.853Z,4.83
2023-01-15T22:40:47.124Z,4.77
2023-01-15T22:45:48.408Z,4.78
2023-01-15T22:50:49.679Z,4.81
2023-01-15T22:55:50.945Z,4.58
2023-01-15T23:00:52.217Z,4.91
2023-01-15T23:05:53.472Z,4.95
2023-01-15T23:10:54.725Z,5.00
2023-01-15T23:15:56.072Z,5.04
2023-01-15T23:20:57.321Z,5.08
2023-01-15T23:25:58.512Z,5.09
2023-01-15T23:30:59.749Z,5.11
2023-01-15T23:36:01.014Z,5.13
2023-01-15T23:41:02.220Z,5.12
2023-01-15T23:46:32.629Z,5.12
2023-01-15T23:51:34.250Z,5.09
2023-01-15T23:56:35.568Z,5.06
